sensor_id;sensor_type;location;lat;lon;timestamp;P1;durP1;ratioP1;P2;durP2;ratioP2
56631;SDS011;42503;39.928;-75.152;2023-07-29T00:06:57;24.70;;;20.55;;
56631;SDS011;42503;39.928;-75.152;2023-07-29T00:16:59;27.92;;;23.13;;
56631;SDS011;42503;39.928;-75.152;2023-07-29T00:27:00;23.80;;;21.00;;
56631;SDS011;42503;39.928;-75.152;2023-07-29T00:37:04;24.20;;;21.60;;
56631;SDS011;42503;39.928;-75.152;2023-07-29T00:47:06;23.50;;;20.85;;
56631;SDS011;42503;39.928;-75.152;2023-07-29T00:57:08;24.23;;;21.27;;
56631;SDS011;42503;39.928;-75.152;2023-07-29T01:07:16;23.60;;;20.95;;
56631;SDS011;42503;39.928;-75.152;2023-07-29T01:17:25;24.67;;;21.88;;
56631;SDS011;42503;39.928;-75.152;2023-07-29T01:27:34;22.95;;;20.48;;
56631;SDS011;42503;39.928;-75.152;2023-07-29T01:37:35;22.50;;;19.83;;
56631;SDS011;42503;39.928;-75.152;2023-07-29T01:47:40;21.50;;;19.15;;
56631;SDS011;42503;39.928;-75.152;2023-07-29T01:57:42;20.80;;;17.92;;
56631;SDS011;42503;39.928;-75.152;2023-07-29T02:07:45;19.67;;;17.58;;
56631;SDS011;42503;39.928;-75.152;2023-07-29T02:17:46;20.70;;;17.02;;
56631;SDS011;42503;39.928;-75.152;2023-07-29T02:27:50;21.30;;;18.30;;
56631;SDS011;42503;39.928;-75.152;2023-07-29T02:37:52;17.40;;;15.18;;
56631;SDS011;42503;39.928;-75.152;2023-07-29T02:47:53;17.55;;;15.65;;
56631;SDS011;42503;39.928;-75.152;2023-07-29T02:57:54;16.77;;;14.30;;
56631;SDS011;42503;39.928;-75.152;2023-07-29T03:07:57;16.75;;;14.73;;
56631;SDS011;42503;39.928;-75.152;2023-07-29T03:17:59;16.02;;;13.93;;
56631;SDS011;42503;39.928;-75.152;2023-07-29T03:28:00;14.13;;;12.60;;
56631;SDS011;42503;39.928;-75.152;2023-07-29T03:38:02;14.90;;;12.23;;
56631;SDS011;42503;39.928;-75.152;2023-07-29T03:48:04;14.18;;;12.27;;
56631;SDS011;42503;39.928;-75.152;2023-07-29T03:58:05;13.30;;;11.90;;
56631;SDS011;42503;39.928;-75.152;2023-07-29T04:08:07;13.23;;;11.43;;
56631;SDS011;42503;39.928;-75.152;2023-07-29T04:18:08;12.95;;;11.25;;
56631;SDS011;42503;39.928;-75.152;2023-07-29T04:28:09;11.90;;;10.57;;
56631;SDS011;42503;39.928;-75.152;2023-07-29T04:38:11;13.57;;;10.73;;
56631;SDS011;42503;39.928;-75.152;2023-07-29T04:48:12;12.15;;;10.63;;
56631;SDS011;42503;39.928;-75.152;2023-07-29T04:58:13;11.60;;;10.38;;
56631;SDS011;42503;39.928;-75.152;2023-07-29T05:08:15;12.23;;;10.23;;
56631;SDS011;42503;39.928;-75.152;2023-07-29T05:18:17;10.50;;;9.30;;
56631;SDS011;42503;39.928;-75.152;2023-07-29T05:28:18;11.95;;;9.55;;
56631;SDS011;42503;39.928;-75.152;2023-07-29T05:38:20;11.60;;;9.77;;
56631;SDS011;42503;39.928;-75.152;2023-07-29T05:48:21;10.30;;;9.20;;
56631;SDS011;42503;39.928;-75.152;2023-07-29T05:58:23;9.70;;;8.70;;
56631;SDS011;42503;39.928;-75.152;2023-07-29T06:08:24;9.27;;;8.20;;
56631;SDS011;42503;39.928;-75.152;2023-07-29T06:18:29;10.80;;;9.18;;
56631;SDS011;42503;39.928;-75.152;2023-07-29T06:28:30;9.48;;;8.35;;
56631;SDS011;42503;39.928;-75.152;2023-07-29T06:38:31;9.27;;;8.38;;
56631;SDS011;42503;39.928;-75.152;2023-07-29T06:48:33;9.15;;;7.88;;
56631;SDS011;42503;39.928;-75.152;2023-07-29T06:58:34;8.82;;;7.93;;
56631;SDS011;42503;39.928;-75.152;2023-07-29T07:08:36;8.75;;;7.53;;
56631;SDS011;42503;39.928;-75.152;2023-07-29T07:18:37;8.80;;;7.57;;
56631;SDS011;42503;39.928;-75.152;2023-07-29T07:28:41;8.60;;;7.53;;
56631;SDS011;42503;39.928;-75.152;2023-07-29T07:38:45;7.63;;;6.70;;
56631;SDS011;42503;39.928;-75.152;2023-07-29T07:48:47;7.97;;;7.18;;
56631;SDS011;42503;39.928;-75.152;2023-07-29T07:58:48;7.65;;;6.88;;
56631;SDS011;42503;39.928;-75.152;2023-07-29T08:08:50;8.52;;;6.60;;
56631;SDS011;42503;39.928;-75.152;2023-07-29T08:18:51;7.57;;;6.55;;
56631;SDS011;42503;39.928;-75.152;2023-07-29T08:28:52;7.38;;;6.65;;
56631;SDS011;42503;39.928;-75.152;2023-07-29T08:38:54;6.43;;;5.72;;
56631;SDS011;42503;39.928;-75.152;2023-07-29T08:48:55;6.18;;;5.57;;
56631;SDS011;42503;39.928;-75.152;2023-07-29T08:58:59;6.28;;;5.68;;
56631;SDS011;42503;39.928;-75.152;2023-07-29T09:09:04;7.57;;;6.63;;
56631;SDS011;42503;39.928;-75.152;2023-07-29T09:19:08;6.07;;;5.22;;
56631;SDS011;42503;39.928;-75.152;2023-07-29T09:29:09;6.05;;;5.45;;
56631;SDS011;42503;39.928;-75.152;2023-07-29T09:39:12;6.00;;;5.40;;
56631;SDS011;42503;39.928;-75.152;2023-07-29T09:49:16;5.60;;;5.10;;
56631;SDS011;42503;39.928;-75.152;2023-07-29T09:59:19;5.53;;;5.00;;
56631;SDS011;42503;39.928;-75.152;2023-07-29T10:09:23;6.25;;;5.18;;
56631;SDS011;42503;39.928;-75.152;2023-07-29T10:19:25;5.57;;;5.07;;
56631;SDS011;42503;39.928;-75.152;2023-07-29T10:29:31;4.80;;;4.30;;
56631;SDS011;42503;39.928;-75.152;2023-07-29T10:39:40;4.93;;;4.43;;
56631;SDS011;42503;39.928;-75.152;2023-07-29T10:49:56;5.15;;;4.65;;
56631;SDS011;42503;39.928;-75.152;2023-07-29T11:00:02;5.10;;;4.70;;
56631;SDS011;42503;39.928;-75.152;2023-07-29T11:10:05;4.85;;;4.45;;
56631;SDS011;42503;39.928;-75.152;2023-07-29T11:20:08;4.60;;;4.10;;
56631;SDS011;42503;39.928;-75.152;2023-07-29T11:30:11;5.00;;;4.47;;
56631;SDS011;42503;39.928;-75.152;2023-07-29T11:40:22;5.35;;;4.50;;
56631;SDS011;42503;39.928;-75.152;2023-07-29T11:50:24;4.70;;;4.30;;
56631;SDS011;42503;39.928;-75.152;2023-07-29T12:00:25;4.38;;;3.97;;
56631;SDS011;42503;39.928;-75.152;2023-07-29T12:10:27;4.75;;;4.35;;
56631;SDS011;42503;39.928;-75.152;2023-07-29T12:20:29;4.95;;;4.47;;
56631;SDS011;42503;39.928;-75.152;2023-07-29T12:30:31;4.75;;;4.32;;
56631;SDS011;42503;39.928;-75.152;2023-07-29T12:40:37;4.55;;;4.15;;
56631;SDS011;42503;39.928;-75.152;2023-07-29T12:50:40;4.57;;;4.18;;
56631;SDS011;42503;39.928;-75.152;2023-07-29T13:00:42;4.47;;;3.92;;
56631;SDS011;42503;39.928;-75.152;2023-07-29T13:10:43;3.75;;;3.45;;
56631;SDS011;42503;39.928;-75.152;2023-07-29T13:20:44;3.70;;;3.30;;
56631;SDS011;42503;39.928;-75.152;2023-07-29T13:30:46;4.57;;;4.18;;
56631;SDS011;42503;39.928;-75.152;2023-07-29T13:40:47;4.07;;;3.65;;
56631;SDS011;42503;39.928;-75.152;2023-07-29T13:50:52;4.15;;;3.75;;
56631;SDS011;42503;39.928;-75.152;2023-07-29T14:00:56;4.47;;;4.07;;
56631;SDS011;42503;39.928;-75.152;2023-07-29T14:10:58;4.47;;;3.85;;
56631;SDS011;42503;39.928;-75.152;2023-07-29T14:20:59;4.75;;;4.05;;
56631;SDS011;42503;39.928;-75.152;2023-07-29T14:31:00;4.13;;;3.80;;
56631;SDS011;42503;39.928;-75.152;2023-07-29T14:41:02;3.28;;;3.00;;
56631;SDS011;42503;39.928;-75.152;2023-07-29T14:51:05;3.70;;;3.40;;
56631;SDS011;42503;39.928;-75.152;2023-07-29T15:01:07;4.00;;;3.65;;
56631;SDS011;42503;39.928;-75.152;2023-07-29T15:11:08;3.50;;;3.20;;
56631;SDS011;42503;39.928;-75.152;2023-07-29T15:21:12;3.67;;;3.38;;
56631;SDS011;42503;39.928;-75.152;2023-07-29T15:31:16;4.80;;;4.15;;
56631;SDS011;42503;39.928;-75.152;2023-07-29T15:41:19;3.70;;;3.40;;
56631;SDS011;42503;39.928;-75.152;2023-07-29T15:51:21;4.57;;;4.13;;
56631;SDS011;42503;39.928;-75.152;2023-07-29T16:01:22;3.90;;;3.60;;
56631;SDS011;42503;39.928;-75.152;2023-07-29T16:11:24;4.32;;;3.92;;
56631;SDS011;42503;39.928;-75.152;2023-07-29T16:21:28;4.88;;;4.38;;
56631;SDS011;42503;39.928;-75.152;2023-07-29T16:31:31;4.47;;;4.07;;
56631;SDS011;42503;39.928;-75.152;2023-07-29T16:41:32;4.65;;;4.25;;
56631;SDS011;42503;39.928;-75.152;2023-07-29T16:51:33;4.80;;;4.32;;
56631;SDS011;42503;39.928;-75.152;2023-07-29T17:01:35;4.28;;;3.88;;
56631;SDS011;42503;39.928;-75.152;2023-07-29T17:11:36;5.50;;;4.60;;
56631;SDS011;42503;39.928;-75.152;2023-07-29T17:21:37;5.40;;;4.80;;
56631;SDS011;42503;39.928;-75.152;2023-07-29T17:31:39;4.90;;;4.40;;
56631;SDS011;42503;39.928;-75.152;2023-07-29T17:41:44;5.40;;;4.88;;
56631;SDS011;42503;39.928;-75.152;2023-07-29T17:51:45;5.55;;;5.00;;
56631;SDS011;42503;39.928;-75.152;2023-07-29T18:01:46;5.75;;;5.10;;
56631;SDS011;42503;39.928;-75.152;2023-07-29T18:11:49;5.57;;;5.07;;
56631;SDS011;42503;39.928;-75.152;2023-07-29T18:21:52;7.13;;;5.70;;
56631;SDS011;42503;39.928;-75.152;2023-07-29T18:31:53;6.68;;;6.07;;
56631;SDS011;42503;39.928;-75.152;2023-07-29T18:41:56;6.05;;;5.43;;
56631;SDS011;42503;39.928;-75.152;2023-07-29T18:51:58;5.95;;;5.35;;
56631;SDS011;42503;39.928;-75.152;2023-07-29T19:01:59;6.28;;;5.68;;
56631;SDS011;42503;39.928;-75.152;2023-07-29T19:12:00;7.20;;;5.72;;
56631;SDS011;42503;39.928;-75.152;2023-07-29T19:22:02;6.30;;;5.70;;
56631;SDS011;42503;39.928;-75.152;2023-07-29T19:32:07;6.93;;;6.25;;
56631;SDS011;42503;39.928;-75.152;2023-07-29T19:42:08;7.03;;;6.30;;
56631;SDS011;42503;39.928;-75.152;2023-07-29T19:52:09;7.22;;;6.50;;
56631;SDS011;42503;39.928;-75.152;2023-07-29T20:02:11;6.93;;;6.22;;
56631;SDS011;42503;39.928;-75.152;2023-07-29T20:12:13;8.90;;;7.57;;
56631;SDS011;42503;39.928;-75.152;2023-07-29T20:22:14;7.45;;;6.65;;
56631;SDS011;42503;39.928;-75.152;2023-07-29T20:32:15;8.05;;;7.18;;
56631;SDS011;42503;39.928;-75.152;2023-07-29T20:42:17;7.53;;;6.72;;
56631;SDS011;42503;39.928;-75.152;2023-07-29T20:52:18;7.97;;;7.03;;
56631;SDS011;42503;39.928;-75.152;2023-07-29T21:02:19;7.53;;;6.78;;
56631;SDS011;42503;39.928;-75.152;2023-07-29T21:12:21;7.90;;;7.10;;
56631;SDS011;42503;39.928;-75.152;2023-07-29T21:22:25;8.20;;;7.40;;
56631;SDS011;42503;39.928;-75.152;2023-07-29T21:32:26;9.35;;;8.02;;
56631;SDS011;42503;39.928;-75.152;2023-07-29T21:42:27;9.25;;;8.07;;
56631;SDS011;42503;39.928;-75.152;2023-07-29T21:52:29;10.57;;;9.30;;
56631;SDS011;42503;39.928;-75.152;2023-07-29T22:02:31;10.75;;;8.98;;
56631;SDS011;42503;39.928;-75.152;2023-07-29T22:12:38;9.80;;;8.80;;
56631;SDS011;42503;39.928;-75.152;2023-07-29T22:22:42;9.27;;;8.38;;
56631;SDS011;42503;39.928;-75.152;2023-07-29T22:32:43;9.65;;;8.65;;
56631;SDS011;42503;39.928;-75.152;2023-07-29T22:42:49;8.70;;;7.75;;
56631;SDS011;42503;39.928;-75.152;2023-07-29T22:53:05;8.32;;;7.35;;
56631;SDS011;42503;39.928;-75.152;2023-07-29T23:03:06;9.05;;;7.43;;
56631;SDS011;42503;39.928;-75.152;2023-07-29T23:13:08;9.27;;;7.43;;
56631;SDS011;42503;39.928;-75.152;2023-07-29T23:23:10;7.90;;;7.10;;
56631;SDS011;42503;39.928;-75.152;2023-07-29T23:33:11;7.13;;;6.43;;
56631;SDS011;42503;39.928;-75.152;2023-07-29T23:43:13;7.13;;;6.43;;
56631;SDS011;42503;39.928;-75.152;2023-07-29T23:53:17;7.22;;;6.53;;
